sensor_id;sensor_type;location;lat;lon;timestamp;temperature;humidity
11087;DHT22;5597;47.588;9.642;2024-02-26T00:00:32;7.00;99.90
11087;DHT22;5597;47.588;9.642;2024-02-26T00:03:00;7.10;99.90
11087;DHT22;5597;47.588;9.642;2024-02-26T00:05:26;7.20;99.90
11087;DHT22;5597;47.588;9.642;2024-02-26T00:07:51;7.20;99.90
11087;DHT22;5597;47.588;9.642;2024-02-26T00:10:17;7.30;99.90
11087;DHT22;5597;47.588;9.642;2024-02-26T00:12:43;7.40;99.90
11087;DHT22;5597;47.588;9.642;2024-02-26T00:15:09;7.60;99.90
11087;DHT22;5597;47.588;9.642;2024-02-26T00:17:35;7.80;99.90
11087;DHT22;5597;47.588;9.642;2024-02-26T00:20:04;8.00;99.90
11087;DHT22;5597;47.588;9.642;2024-02-26T00:22:34;8.10;99.90
11087;DHT22;5597;47.588;9.642;2024-02-26T00:24:59;8.30;99.90
11087;DHT22;5597;47.588;9.642;2024-02-26T00:27:25;8.30;99.90
11087;DHT22;5597;47.588;9.642;2024-02-26T00:29:50;8.30;99.90
11087;DHT22;5597;47.588;9.642;2024-02-26T00:32:16;8.40;99.90
11087;DHT22;5597;47.588;9.642;2024-02-26T00:34:41;8.40;99.90
11087;DHT22;5597;47.588;9.642;2024-02-26T00:37:07;8.50;99.90
11087;DHT22;5597;47.588;9.642;2024-02-26T00:39:33;8.50;99.90
11087;DHT22;5597;47.588;9.642;2024-02-26T00:41:58;8.50;99.90
11087;DHT22;5597;47.588;9.642;2024-02-26T00:44:24;8.40;99.90
11087;DHT22;5597;47.588;9.642;2024-02-26T00:46:49;8.40;99.90
11087;DHT22;5597;47.588;9.642;2024-02-26T00:49:15;8.30;99.90
11087;DHT22;5597;47.588;9.642;2024-02-26T00:51:40;8.30;99.90
11087;DHT22;5597;47.588;9.642;2024-02-26T00:54:06;8.30;99.90
11087;DHT22;5597;47.588;9.642;2024-02-26T00:56:31;8.30;99.90
11087;DHT22;5597;47.588;9.642;2024-02-26T00:58:58;8.30;99.90
11087;DHT22;5597;47.588;9.642;2024-02-26T01:01:23;8.30;99.90
11087;DHT22;5597;47.588;9.642;2024-02-26T01:03:49;8.40;99.90
11087;DHT22;5597;47.588;9.642;2024-02-26T01:06:14;8.30;99.90
11087;DHT22;5597;47.588;9.642;2024-02-26T01:08:40;8.30;99.90
11087;DHT22;5597;47.588;9.642;2024-02-26T01:11:05;8.30;99.90
11087;DHT22;5597;47.588;9.642;2024-02-26T01:13:31;8.30;99.90
11087;DHT22;5597;47.588;9.642;2024-02-26T01:15:57;8.30;99.90
11087;DHT22;5597;47.588;9.642;2024-02-26T01:18:22;8.30;99.90
11087;DHT22;5597;47.588;9.642;2024-02-26T01:20:48;8.30;99.90
11087;DHT22;5597;47.588;9.642;2024-02-26T01:23:14;8.20;99.90
11087;DHT22;5597;47.588;9.642;2024-02-26T01:25:39;8.20;99.90
11087;DHT22;5597;47.588;9.642;2024-02-26T01:28:05;8.20;99.90
11087;DHT22;5597;47.588;9.642;2024-02-26T01:30:31;8.20;99.90
11087;DHT22;5597;47.588;9.642;2024-02-26T01:32:57;8.20;99.90
11087;DHT22;5597;47.588;9.642;2024-02-26T01:35:22;8.20;99.90
11087;DHT22;5597;47.588;9.642;2024-02-26T01:37:48;8.30;99.90
11087;DHT22;5597;47.588;9.642;2024-02-26T01:40:14;8.30;99.90
11087;DHT22;5597;47.588;9.642;2024-02-26T01:42:44;8.30;99.90
11087;DHT22;5597;47.588;9.642;2024-02-26T01:45:16;8.40;99.90
11087;DHT22;5597;47.588;9.642;2024-02-26T01:47:49;8.40;99.90
11087;DHT22;5597;47.588;9.642;2024-02-26T01:50:15;8.40;99.90
11087;DHT22;5597;47.588;9.642;2024-02-26T01:52:41;8.40;99.90
11087;DHT22;5597;47.588;9.642;2024-02-26T01:55:07;8.40;99.90
11087;DHT22;5597;47.588;9.642;2024-02-26T01:57:33;8.40;99.90
11087;DHT22;5597;47.588;9.642;2024-02-26T01:59:59;8.40;99.90
11087;DHT22;5597;47.588;9.642;2024-02-26T02:02:25;8.40;99.90
11087;DHT22;5597;47.588;9.642;2024-02-26T02:04:51;8.40;99.90
11087;DHT22;5597;47.588;9.642;2024-02-26T02:07:18;8.30;99.90
11087;DHT22;5597;47.588;9.642;2024-02-26T02:09:44;8.30;99.90
11087;DHT22;5597;47.588;9.642;2024-02-26T02:12:11;8.20;99.90
11087;DHT22;5597;47.588;9.642;2024-02-26T02:14:36;8.10;99.90
11087;DHT22;5597;47.588;9.642;2024-02-26T02:17:02;8.00;99.90
11087;DHT22;5597;47.588;9.642;2024-02-26T02:19:27;8.00;99.90
11087;DHT22;5597;47.588;9.642;2024-02-26T02:21:53;8.00;99.90
11087;DHT22;5597;47.588;9.642;2024-02-26T02:24:18;8.10;99.90
11087;DHT22;5597;47.588;9.642;2024-02-26T02:26:44;8.10;99.90
11087;DHT22;5597;47.588;9.642;2024-02-26T02:29:10;8.10;99.90
11087;DHT22;5597;47.588;9.642;2024-02-26T02:31:36;8.10;99.90
11087;DHT22;5597;47.588;9.642;2024-02-26T02:34:02;8.10;99.90
11087;DHT22;5597;47.588;9.642;2024-02-26T02:36:27;8.10;99.90
11087;DHT22;5597;47.588;9.642;2024-02-26T02:38:53;8.00;99.90
11087;DHT22;5597;47.588;9.642;2024-02-26T02:41:19;8.10;99.90
11087;DHT22;5597;47.588;9.642;2024-02-26T02:43:45;8.20;99.90
11087;DHT22;5597;47.588;9.642;2024-02-26T02:46:10;8.30;99.90
11087;DHT22;5597;47.588;9.642;2024-02-26T02:48:39;8.40;99.90
11087;DHT22;5597;47.588;9.642;2024-02-26T02:51:06;8.40;99.90
11087;DHT22;5597;47.588;9.642;2024-02-26T02:53:32;8.60;99.90
11087;DHT22;5597;47.588;9.642;2024-02-26T02:55:57;8.60;99.90
11087;DHT22;5597;47.588;9.642;2024-02-26T02:58:23;8.60;99.90
11087;DHT22;5597;47.588;9.642;2024-02-26T03:00:48;8.60;99.90
11087;DHT22;5597;47.588;9.642;2024-02-26T03:03:14;8.60;99.90
11087;DHT22;5597;47.588;9.642;2024-02-26T03:05:39;8.60;99.90
11087;DHT22;5597;47.588;9.642;2024-02-26T03:08:05;8.50;99.90
11087;DHT22;5597;47.588;9.642;2024-02-26T03:10:31;8.50;99.90
11087;DHT22;5597;47.588;9.642;2024-02-26T03:12:56;8.40;99.90
11087;DHT22;5597;47.588;9.642;2024-02-26T03:15:22;8.40;99.90
11087;DHT22;5597;47.588;9.642;2024-02-26T03:17:48;8.40;99.90
11087;DHT22;5597;47.588;9.642;2024-02-26T03:20:13;8.40;99.90
11087;DHT22;5597;47.588;9.642;2024-02-26T03:22:39;8.40;99.90
11087;DHT22;5597;47.588;9.642;2024-02-26T03:25:06;8.30;99.90
11087;DHT22;5597;47.588;9.642;2024-02-26T03:27:32;8.10;99.90
11087;DHT22;5597;47.588;9.642;2024-02-26T03:29:57;8.00;99.90
11087;DHT22;5597;47.588;9.642;2024-02-26T03:32:23;7.90;99.90
11087;DHT22;5597;47.588;9.642;2024-02-26T03:34:48;7.80;99.90
11087;DHT22;5597;47.588;9.642;2024-02-26T03:37:14;7.70;99.90
11087;DHT22;5597;47.588;9.642;2024-02-26T03:39:40;7.60;99.90
11087;DHT22;5597;47.588;9.642;2024-02-26T03:42:06;7.50;99.90
11087;DHT22;5597;47.588;9.642;2024-02-26T03:44:31;7.40;99.90
11087;DHT22;5597;47.588;9.642;2024-02-26T03:46:57;7.30;99.90
11087;DHT22;5597;47.588;9.642;2024-02-26T03:49:23;7.20;99.90
11087;DHT22;5597;47.588;9.642;2024-02-26T03:51:49;7.20;99.90
11087;DHT22;5597;47.588;9.642;2024-02-26T03:54:14;7.10;99.90
11087;DHT22;5597;47.588;9.642;2024-02-26T03:56:40;7.10;99.90
11087;DHT22;5597;47.588;9.642;2024-02-26T03:59:05;7.00;99.90
11087;DHT22;5597;47.588;9.642;2024-02-26T04:01:31;7.00;99.90
11087;DHT22;5597;47.588;9.642;2024-02-26T04:03:57;6.90;99.90
11087;DHT22;5597;47.588;9.642;2024-02-26T04:06:22;6.90;99.90
11087;DHT22;5597;47.588;9.642;2024-02-26T04:08:48;6.90;99.90
11087;DHT22;5597;47.588;9.642;2024-02-26T04:11:14;6.80;99.90
11087;DHT22;5597;47.588;9.642;2024-02-26T04:13:43;6.80;99.90
11087;DHT22;5597;47.588;9.642;2024-02-26T04:16:11;6.80;99.90
11087;DHT22;5597;47.588;9.642;2024-02-26T04:18:37;6.80;99.90
11087;DHT22;5597;47.588;9.642;2024-02-26T04:21:04;6.80;99.90
11087;DHT22;5597;47.588;9.642;2024-02-26T04:23:32;6.80;99.90
11087;DHT22;5597;47.588;9.642;2024-02-26T04:25:58;6.90;99.90
11087;DHT22;5597;47.588;9.642;2024-02-26T04:28:23;6.90;99.90
11087;DHT22;5597;47.588;9.642;2024-02-26T04:30:51;7.00;99.90
11087;DHT22;5597;47.588;9.642;2024-02-26T04:33:17;7.00;99.90
11087;DHT22;5597;47.588;9.642;2024-02-26T04:35:42;7.00;99.90
11087;DHT22;5597;47.588;9.642;2024-02-26T04:38:08;7.10;99.90
11087;DHT22;5597;47.588;9.642;2024-02-26T04:40:33;7.10;99.90
11087;DHT22;5597;47.588;9.642;2024-02-26T04:42:59;7.10;99.90
11087;DHT22;5597;47.588;9.642;2024-02-26T04:45:25;7.20;99.90
11087;DHT22;5597;47.588;9.642;2024-02-26T04:47:50;7.20;99.90
11087;DHT22;5597;47.588;9.642;2024-02-26T04:50:16;7.20;99.90
11087;DHT22;5597;47.588;9.642;2024-02-26T04:52:42;7.20;99.90
11087;DHT22;5597;47.588;9.642;2024-02-26T04:55:07;7.20;99.90
11087;DHT22;5597;47.588;9.642;2024-02-26T04:57:33;7.10;99.90
11087;DHT22;5597;47.588;9.642;2024-02-26T04:59:59;7.10;99.90
11087;DHT22;5597;47.588;9.642;2024-02-26T05:02:24;7.00;99.90
11087;DHT22;5597;47.588;9.642;2024-02-26T05:04:50;7.00;99.90
11087;DHT22;5597;47.588;9.642;2024-02-26T05:07:16;7.00;99.90
11087;DHT22;5597;47.588;9.642;2024-02-26T05:09:43;7.00;99.90
11087;DHT22;5597;47.588;9.642;2024-02-26T05:12:09;7.00;99.90
11087;DHT22;5597;47.588;9.642;2024-02-26T05:14:35;7.00;99.90
11087;DHT22;5597;47.588;9.642;2024-02-26T05:17:00;7.00;99.90
11087;DHT22;5597;47.588;9.642;2024-02-26T05:19:26;7.00;99.90
11087;DHT22;5597;47.588;9.642;2024-02-26T05:21:52;7.00;99.90
11087;DHT22;5597;47.588;9.642;2024-02-26T05:24:17;6.90;99.90
11087;DHT22;5597;47.588;9.642;2024-02-26T05:26:44;6.90;99.90
11087;DHT22;5597;47.588;9.642;2024-02-26T05:29:10;6.80;99.90
11087;DHT22;5597;47.588;9.642;2024-02-26T05:31:36;6.70;99.90
11087;DHT22;5597;47.588;9.642;2024-02-26T05:34:01;6.60;99.90
11087;DHT22;5597;47.588;9.642;2024-02-26T05:36:27;6.70;99.90
11087;DHT22;5597;47.588;9.642;2024-02-26T05:38:54;6.60;99.90
11087;DHT22;5597;47.588;9.642;2024-02-26T05:41:20;6.60;99.90
11087;DHT22;5597;47.588;9.642;2024-02-26T05:43:51;6.50;99.90
11087;DHT22;5597;47.588;9.642;2024-02-26T05:46:18;6.40;99.90
11087;DHT22;5597;47.588;9.642;2024-02-26T05:48:44;6.40;99.90
11087;DHT22;5597;47.588;9.642;2024-02-26T05:51:10;6.30;99.90
11087;DHT22;5597;47.588;9.642;2024-02-26T05:53:35;6.20;99.90
11087;DHT22;5597;47.588;9.642;2024-02-26T05:56:01;6.20;99.90
11087;DHT22;5597;47.588;9.642;2024-02-26T05:58:26;6.20;99.90
11087;DHT22;5597;47.588;9.642;2024-02-26T06:00:52;6.20;99.90
11087;DHT22;5597;47.588;9.642;2024-02-26T06:03:18;6.10;99.90
11087;DHT22;5597;47.588;9.642;2024-02-26T06:05:43;6.10;99.90
11087;DHT22;5597;47.588;9.642;2024-02-26T06:08:09;6.00;99.90
11087;DHT22;5597;47.588;9.642;2024-02-26T06:10:34;6.00;99.90
11087;DHT22;5597;47.588;9.642;2024-02-26T06:13:00;5.90;99.90
11087;DHT22;5597;47.588;9.642;2024-02-26T06:15:25;5.80;99.90
11087;DHT22;5597;47.588;9.642;2024-02-26T06:17:51;5.80;99.90
11087;DHT22;5597;47.588;9.642;2024-02-26T06:20:16;5.80;99.90
11087;DHT22;5597;47.588;9.642;2024-02-26T06:22:42;5.70;99.90
11087;DHT22;5597;47.588;9.642;2024-02-26T06:25:08;5.70;99.90
11087;DHT22;5597;47.588;9.642;2024-02-26T06:27:34;5.60;99.90
11087;DHT22;5597;47.588;9.642;2024-02-26T06:30:00;5.60;99.90
11087;DHT22;5597;47.588;9.642;2024-02-26T06:32:26;5.50;99.90
11087;DHT22;5597;47.588;9.642;2024-02-26T06:34:54;5.50;99.90
11087;DHT22;5597;47.588;9.642;2024-02-26T06:37:20;5.50;99.90
11087;DHT22;5597;47.588;9.642;2024-02-26T06:39:46;5.40;99.90
11087;DHT22;5597;47.588;9.642;2024-02-26T06:42:11;5.40;99.90
11087;DHT22;5597;47.588;9.642;2024-02-26T06:44:37;5.40;99.90
11087;DHT22;5597;47.588;9.642;2024-02-26T06:47:03;5.40;99.90
11087;DHT22;5597;47.588;9.642;2024-02-26T06:49:29;5.30;99.90
11087;DHT22;5597;47.588;9.642;2024-02-26T06:51:55;5.30;99.90
11087;DHT22;5597;47.588;9.642;2024-02-26T06:54:20;5.30;99.90
11087;DHT22;5597;47.588;9.642;2024-02-26T06:56:46;5.20;99.90
11087;DHT22;5597;47.588;9.642;2024-02-26T06:59:12;5.20;99.90
11087;DHT22;5597;47.588;9.642;2024-02-26T07:01:39;5.20;99.90
11087;DHT22;5597;47.588;9.642;2024-02-26T07:04:05;5.20;99.90
11087;DHT22;5597;47.588;9.642;2024-02-26T07:06:31;5.10;99.90
11087;DHT22;5597;47.588;9.642;2024-02-26T07:08:57;5.00;99.90
11087;DHT22;5597;47.588;9.642;2024-02-26T07:11:23;4.90;99.90
11087;DHT22;5597;47.588;9.642;2024-02-26T07:13:48;5.00;99.90
11087;DHT22;5597;47.588;9.642;2024-02-26T07:16:15;4.90;99.90
11087;DHT22;5597;47.588;9.642;2024-02-26T07:18:40;4.90;99.90
11087;DHT22;5597;47.588;9.642;2024-02-26T07:21:06;4.90;99.90
11087;DHT22;5597;47.588;9.642;2024-02-26T07:23:32;4.90;99.90
11087;DHT22;5597;47.588;9.642;2024-02-26T07:25:57;5.00;99.90
11087;DHT22;5597;47.588;9.642;2024-02-26T07:28:24;5.00;99.90
11087;DHT22;5597;47.588;9.642;2024-02-26T07:30:49;5.00;99.90
11087;DHT22;5597;47.588;9.642;2024-02-26T07:33:15;5.20;99.90
11087;DHT22;5597;47.588;9.642;2024-02-26T07:35:41;5.40;99.90
11087;DHT22;5597;47.588;9.642;2024-02-26T07:38:07;5.60;99.90
11087;DHT22;5597;47.588;9.642;2024-02-26T07:40:32;5.80;99.90
11087;DHT22;5597;47.588;9.642;2024-02-26T07:42:58;5.90;99.90
11087;DHT22;5597;47.588;9.642;2024-02-26T07:45:23;5.90;99.90
11087;DHT22;5597;47.588;9.642;2024-02-26T07:47:49;6.00;99.90
11087;DHT22;5597;47.588;9.642;2024-02-26T07:50:17;6.00;99.90
11087;DHT22;5597;47.588;9.642;2024-02-26T07:52:42;6.00;99.90
11087;DHT22;5597;47.588;9.642;2024-02-26T07:55:08;5.90;99.90
11087;DHT22;5597;47.588;9.642;2024-02-26T07:57:34;5.90;99.90
11087;DHT22;5597;47.588;9.642;2024-02-26T08:00:00;6.00;99.90
11087;DHT22;5597;47.588;9.642;2024-02-26T08:02:25;6.00;99.90
11087;DHT22;5597;47.588;9.642;2024-02-26T08:04:51;6.10;99.90
11087;DHT22;5597;47.588;9.642;2024-02-26T08:07:16;6.20;99.90
11087;DHT22;5597;47.588;9.642;2024-02-26T08:09:42;6.30;99.90
11087;DHT22;5597;47.588;9.642;2024-02-26T08:12:08;6.40;99.90
11087;DHT22;5597;47.588;9.642;2024-02-26T08:14:33;6.50;99.90
11087;DHT22;5597;47.588;9.642;2024-02-26T08:16:59;6.50;99.90
11087;DHT22;5597;47.588;9.642;2024-02-26T08:19:25;6.60;99.90
11087;DHT22;5597;47.588;9.642;2024-02-26T08:21:51;6.60;99.90
11087;DHT22;5597;47.588;9.642;2024-02-26T08:24:17;6.70;99.90
11087;DHT22;5597;47.588;9.642;2024-02-26T08:26:42;6.70;99.90
11087;DHT22;5597;47.588;9.642;2024-02-26T08:29:08;6.80;99.90
11087;DHT22;5597;47.588;9.642;2024-02-26T08:31:33;6.90;99.90
11087;DHT22;5597;47.588;9.642;2024-02-26T08:34:05;7.00;99.90
11087;DHT22;5597;47.588;9.642;2024-02-26T08:36:33;7.10;99.90
11087;DHT22;5597;47.588;9.642;2024-02-26T08:38:59;7.20;99.90
11087;DHT22;5597;47.588;9.642;2024-02-26T08:41:25;7.30;99.90
11087;DHT22;5597;47.588;9.642;2024-02-26T08:43:50;7.30;99.90
11087;DHT22;5597;47.588;9.642;2024-02-26T08:46:16;7.40;99.90
11087;DHT22;5597;47.588;9.642;2024-02-26T08:48:42;7.60;99.90
11087;DHT22;5597;47.588;9.642;2024-02-26T08:51:08;7.70;99.90
11087;DHT22;5597;47.588;9.642;2024-02-26T08:53:34;7.80;99.90
11087;DHT22;5597;47.588;9.642;2024-02-26T08:56:00;7.90;99.90
11087;DHT22;5597;47.588;9.642;2024-02-26T08:58:27;8.00;99.90
11087;DHT22;5597;47.588;9.642;2024-02-26T09:00:53;8.00;99.90
11087;DHT22;5597;47.588;9.642;2024-02-26T09:03:19;8.00;99.90
11087;DHT22;5597;47.588;9.642;2024-02-26T09:05:45;8.00;99.90
11087;DHT22;5597;47.588;9.642;2024-02-26T09:08:10;8.10;99.90
11087;DHT22;5597;47.588;9.642;2024-02-26T09:10:36;8.10;99.90
11087;DHT22;5597;47.588;9.642;2024-02-26T09:13:02;8.20;99.90
11087;DHT22;5597;47.588;9.642;2024-02-26T09:15:27;8.40;99.90
11087;DHT22;5597;47.588;9.642;2024-02-26T09:17:53;8.80;99.90
11087;DHT22;5597;47.588;9.642;2024-02-26T09:20:19;9.20;99.90
11087;DHT22;5597;47.588;9.642;2024-02-26T09:22:46;9.50;99.90
11087;DHT22;5597;47.588;9.642;2024-02-26T09:25:12;9.70;99.90
11087;DHT22;5597;47.588;9.642;2024-02-26T09:27:38;9.70;99.90
11087;DHT22;5597;47.588;9.642;2024-02-26T09:30:04;9.70;99.90
11087;DHT22;5597;47.588;9.642;2024-02-26T09:32:30;9.70;99.90
11087;DHT22;5597;47.588;9.642;2024-02-26T09:34:55;9.70;99.90
11087;DHT22;5597;47.588;9.642;2024-02-26T09:37:21;9.70;99.90
11087;DHT22;5597;47.588;9.642;2024-02-26T09:39:47;9.80;99.90
11087;DHT22;5597;47.588;9.642;2024-02-26T09:42:13;9.90;99.90
11087;DHT22;5597;47.588;9.642;2024-02-26T09:44:40;10.00;99.90
11087;DHT22;5597;47.588;9.642;2024-02-26T09:47:09;10.00;99.90
11087;DHT22;5597;47.588;9.642;2024-02-26T09:49:36;10.10;99.90
11087;DHT22;5597;47.588;9.642;2024-02-26T09:52:04;10.10;99.90
11087;DHT22;5597;47.588;9.642;2024-02-26T09:54:31;10.20;99.90
11087;DHT22;5597;47.588;9.642;2024-02-26T09:57:00;10.30;99.90
11087;DHT22;5597;47.588;9.642;2024-02-26T09:59:39;10.30;99.90
11087;DHT22;5597;47.588;9.642;2024-02-26T10:02:13;10.40;99.90
11087;DHT22;5597;47.588;9.642;2024-02-26T10:04:42;10.40;99.90
11087;DHT22;5597;47.588;9.642;2024-02-26T10:07:13;10.50;99.90
11087;DHT22;5597;47.588;9.642;2024-02-26T10:09:39;10.60;99.90
11087;DHT22;5597;47.588;9.642;2024-02-26T10:12:06;10.60;99.90
11087;DHT22;5597;47.588;9.642;2024-02-26T10:14:33;10.70;99.90
11087;DHT22;5597;47.588;9.642;2024-02-26T10:16:58;10.80;99.90
11087;DHT22;5597;47.588;9.642;2024-02-26T10:19:27;10.80;99.90
11087;DHT22;5597;47.588;9.642;2024-02-26T10:21:57;10.90;99.90
11087;DHT22;5597;47.588;9.642;2024-02-26T10:24:23;11.00;99.90
11087;DHT22;5597;47.588;9.642;2024-02-26T10:26:49;11.10;99.90
11087;DHT22;5597;47.588;9.642;2024-02-26T10:29:14;11.10;99.90
11087;DHT22;5597;47.588;9.642;2024-02-26T10:31:43;10.90;99.90
11087;DHT22;5597;47.588;9.642;2024-02-26T10:34:09;10.80;99.90
11087;DHT22;5597;47.588;9.642;2024-02-26T10:36:34;10.60;99.90
11087;DHT22;5597;47.588;9.642;2024-02-26T10:39:06;10.40;99.90
11087;DHT22;5597;47.588;9.642;2024-02-26T10:41:35;10.30;99.90
11087;DHT22;5597;47.588;9.642;2024-02-26T10:44:01;10.30;99.90
11087;DHT22;5597;47.588;9.642;2024-02-26T10:46:27;10.30;99.90
11087;DHT22;5597;47.588;9.642;2024-02-26T10:48:53;10.30;99.90
11087;DHT22;5597;47.588;9.642;2024-02-26T10:51:27;10.20;99.90
11087;DHT22;5597;47.588;9.642;2024-02-26T10:53:56;10.30;99.90
11087;DHT22;5597;47.588;9.642;2024-02-26T10:56:25;10.30;99.90
11087;DHT22;5597;47.588;9.642;2024-02-26T10:58:53;10.40;99.90
11087;DHT22;5597;47.588;9.642;2024-02-26T11:01:19;10.50;99.90
11087;DHT22;5597;47.588;9.642;2024-02-26T11:03:50;10.60;99.90
11087;DHT22;5597;47.588;9.642;2024-02-26T11:06:16;10.60;99.90
11087;DHT22;5597;47.588;9.642;2024-02-26T11:08:43;10.60;99.90
11087;DHT22;5597;47.588;9.642;2024-02-26T11:11:09;10.60;99.90
11087;DHT22;5597;47.588;9.642;2024-02-26T11:13:39;10.50;99.90
11087;DHT22;5597;47.588;9.642;2024-02-26T11:16:05;10.50;99.90
11087;DHT22;5597;47.588;9.642;2024-02-26T11:18:32;10.50;99.90
11087;DHT22;5597;47.588;9.642;2024-02-26T11:20:59;10.50;99.90
11087;DHT22;5597;47.588;9.642;2024-02-26T11:23:26;10.60;99.90
11087;DHT22;5597;47.588;9.642;2024-02-26T11:25:54;10.50;99.90
11087;DHT22;5597;47.588;9.642;2024-02-26T11:28:21;10.50;99.90
11087;DHT22;5597;47.588;9.642;2024-02-26T11:30:48;10.50;99.90
11087;DHT22;5597;47.588;9.642;2024-02-26T11:33:15;10.60;99.90
11087;DHT22;5597;47.588;9.642;2024-02-26T11:35:41;10.60;99.90
11087;DHT22;5597;47.588;9.642;2024-02-26T11:38:07;10.50;99.90
11087;DHT22;5597;47.588;9.642;2024-02-26T11:40:38;10.50;99.90
11087;DHT22;5597;47.588;9.642;2024-02-26T11:43:06;10.40;99.90
11087;DHT22;5597;47.588;9.642;2024-02-26T11:45:48;10.40;99.90
11087;DHT22;5597;47.588;9.642;2024-02-26T11:48:16;10.30;99.90
11087;DHT22;5597;47.588;9.642;2024-02-26T11:50:46;10.20;99.90
11087;DHT22;5597;47.588;9.642;2024-02-26T11:53:32;10.10;99.90
11087;DHT22;5597;47.588;9.642;2024-02-26T12:01:47;9.80;99.90
11087;DHT22;5597;47.588;9.642;2024-02-26T12:04:21;9.70;99.90
11087;DHT22;5597;47.588;9.642;2024-02-26T12:06:48;9.60;99.90
11087;DHT22;5597;47.588;9.642;2024-02-26T12:09:34;9.40;99.90
11087;DHT22;5597;47.588;9.642;2024-02-26T12:12:02;9.40;99.90
11087;DHT22;5597;47.588;9.642;2024-02-26T12:14:28;9.30;99.90
11087;DHT22;5597;47.588;9.642;2024-02-26T12:16:55;9.30;99.90
11087;DHT22;5597;47.588;9.642;2024-02-26T12:19:21;9.20;99.90
11087;DHT22;5597;47.588;9.642;2024-02-26T12:21:51;9.30;99.90
11087;DHT22;5597;47.588;9.642;2024-02-26T12:24:18;9.20;99.90
11087;DHT22;5597;47.588;9.642;2024-02-26T12:26:45;9.20;99.90
11087;DHT22;5597;47.588;9.642;2024-02-26T12:29:11;9.20;99.90
11087;DHT22;5597;47.588;9.642;2024-02-26T12:31:37;9.20;99.90
11087;DHT22;5597;47.588;9.642;2024-02-26T12:34:04;9.20;99.90
11087;DHT22;5597;47.588;9.642;2024-02-26T12:36:30;9.30;99.90
11087;DHT22;5597;47.588;9.642;2024-02-26T12:38:56;9.30;99.90
11087;DHT22;5597;47.588;9.642;2024-02-26T12:41:22;9.30;99.90
11087;DHT22;5597;47.588;9.642;2024-02-26T12:43:48;9.30;99.90
11087;DHT22;5597;47.588;9.642;2024-02-26T12:46:14;9.30;99.90
11087;DHT22;5597;47.588;9.642;2024-02-26T12:48:43;9.30;99.90
11087;DHT22;5597;47.588;9.642;2024-02-26T12:51:10;9.20;99.90
11087;DHT22;5597;47.588;9.642;2024-02-26T12:53:36;9.20;99.90
11087;DHT22;5597;47.588;9.642;2024-02-26T12:56:02;9.20;99.90
11087;DHT22;5597;47.588;9.642;2024-02-26T12:58:29;9.30;99.90
11087;DHT22;5597;47.588;9.642;2024-02-26T13:00:56;9.30;99.90
11087;DHT22;5597;47.588;9.642;2024-02-26T13:03:22;9.40;99.90
11087;DHT22;5597;47.588;9.642;2024-02-26T13:05:49;9.40;99.90
11087;DHT22;5597;47.588;9.642;2024-02-26T13:08:19;9.50;99.90
11087;DHT22;5597;47.588;9.642;2024-02-26T13:10:48;9.60;99.90
11087;DHT22;5597;47.588;9.642;2024-02-26T13:13:17;9.70;99.90
11087;DHT22;5597;47.588;9.642;2024-02-26T13:15:46;9.70;99.90
11087;DHT22;5597;47.588;9.642;2024-02-26T13:18:14;9.80;99.90
11087;DHT22;5597;47.588;9.642;2024-02-26T13:20:40;9.90;99.90
11087;DHT22;5597;47.588;9.642;2024-02-26T13:23:16;10.00;99.90
11087;DHT22;5597;47.588;9.642;2024-02-26T13:25:42;10.00;99.90
11087;DHT22;5597;47.588;9.642;2024-02-26T13:28:09;10.10;99.90
11087;DHT22;5597;47.588;9.642;2024-02-26T13:30:38;10.20;99.90
11087;DHT22;5597;47.588;9.642;2024-02-26T13:33:13;10.20;99.90
11087;DHT22;5597;47.588;9.642;2024-02-26T13:35:39;10.30;99.90
11087;DHT22;5597;47.588;9.642;2024-02-26T13:38:05;10.30;99.90
11087;DHT22;5597;47.588;9.642;2024-02-26T13:40:32;10.30;99.90
11087;DHT22;5597;47.588;9.642;2024-02-26T13:42:57;10.40;99.90
11087;DHT22;5597;47.588;9.642;2024-02-26T13:45:23;10.50;99.90
11087;DHT22;5597;47.588;9.642;2024-02-26T13:47:49;10.50;99.90
11087;DHT22;5597;47.588;9.642;2024-02-26T13:50:14;10.50;99.90
11087;DHT22;5597;47.588;9.642;2024-02-26T13:52:40;10.60;99.90
11087;DHT22;5597;47.588;9.642;2024-02-26T13:55:06;10.70;99.90
11087;DHT22;5597;47.588;9.642;2024-02-26T13:57:32;10.80;99.90
11087;DHT22;5597;47.588;9.642;2024-02-26T13:59:58;10.80;99.90
11087;DHT22;5597;47.588;9.642;2024-02-26T14:02:24;10.90;99.90
11087;DHT22;5597;47.588;9.642;2024-02-26T14:04:49;11.00;99.90
11087;DHT22;5597;47.588;9.642;2024-02-26T14:07:15;11.10;99.90
11087;DHT22;5597;47.588;9.642;2024-02-26T14:09:42;11.10;99.90
11087;DHT22;5597;47.588;9.642;2024-02-26T14:12:09;11.20;99.90
11087;DHT22;5597;47.588;9.642;2024-02-26T14:14:35;11.20;99.90
11087;DHT22;5597;47.588;9.642;2024-02-26T14:17:04;11.30;99.90
11087;DHT22;5597;47.588;9.642;2024-02-26T14:19:29;11.30;99.90
11087;DHT22;5597;47.588;9.642;2024-02-26T14:21:55;11.40;99.90
11087;DHT22;5597;47.588;9.642;2024-02-26T14:24:21;11.40;99.90
11087;DHT22;5597;47.588;9.642;2024-02-26T14:26:46;11.50;99.90
11087;DHT22;5597;47.588;9.642;2024-02-26T14:29:12;11.50;99.90
11087;DHT22;5597;47.588;9.642;2024-02-26T14:31:38;11.50;99.90
11087;DHT22;5597;47.588;9.642;2024-02-26T14:34:03;11.60;99.90
11087;DHT22;5597;47.588;9.642;2024-02-26T14:36:29;11.60;99.90
11087;DHT22;5597;47.588;9.642;2024-02-26T14:38:54;11.60;99.90
11087;DHT22;5597;47.588;9.642;2024-02-26T14:41:20;11.60;99.90
11087;DHT22;5597;47.588;9.642;2024-02-26T14:43:46;11.70;99.90
11087;DHT22;5597;47.588;9.642;2024-02-26T14:46:11;11.70;99.90
11087;DHT22;5597;47.588;9.642;2024-02-26T14:48:37;11.70;99.90
11087;DHT22;5597;47.588;9.642;2024-02-26T14:51:03;11.70;99.90
11087;DHT22;5597;47.588;9.642;2024-02-26T14:53:32;11.70;99.90
11087;DHT22;5597;47.588;9.642;2024-02-26T14:55:58;11.70;99.90
11087;DHT22;5597;47.588;9.642;2024-02-26T14:58:23;11.70;99.90
11087;DHT22;5597;47.588;9.642;2024-02-26T15:00:49;11.60;99.90
11087;DHT22;5597;47.588;9.642;2024-02-26T15:03:15;11.60;99.90
11087;DHT22;5597;47.588;9.642;2024-02-26T15:05:40;11.50;99.90
11087;DHT22;5597;47.588;9.642;2024-02-26T15:08:06;11.50;99.90
11087;DHT22;5597;47.588;9.642;2024-02-26T15:10:34;11.40;99.90
11087;DHT22;5597;47.588;9.642;2024-02-26T15:13:00;11.40;99.90
11087;DHT22;5597;47.588;9.642;2024-02-26T15:15:25;11.30;99.90
11087;DHT22;5597;47.588;9.642;2024-02-26T15:17:51;11.30;99.90
11087;DHT22;5597;47.588;9.642;2024-02-26T15:20:17;11.20;99.90
11087;DHT22;5597;47.588;9.642;2024-02-26T15:22:42;11.10;99.90
11087;DHT22;5597;47.588;9.642;2024-02-26T15:25:09;11.10;99.90
11087;DHT22;5597;47.588;9.642;2024-02-26T15:27:34;11.00;99.90
11087;DHT22;5597;47.588;9.642;2024-02-26T15:30:00;11.00;99.90
11087;DHT22;5597;47.588;9.642;2024-02-26T15:32:27;11.00;99.90
11087;DHT22;5597;47.588;9.642;2024-02-26T15:34:55;10.90;99.90
11087;DHT22;5597;47.588;9.642;2024-02-26T15:37:21;10.90;99.90
11087;DHT22;5597;47.588;9.642;2024-02-26T15:39:47;10.90;99.90
11087;DHT22;5597;47.588;9.642;2024-02-26T15:42:13;10.90;99.90
11087;DHT22;5597;47.588;9.642;2024-02-26T15:44:39;10.90;99.90
11087;DHT22;5597;47.588;9.642;2024-02-26T15:47:05;10.90;99.90
11087;DHT22;5597;47.588;9.642;2024-02-26T15:49:31;10.90;99.90
11087;DHT22;5597;47.588;9.642;2024-02-26T15:51:57;10.90;99.90
11087;DHT22;5597;47.588;9.642;2024-02-26T15:54:23;10.90;99.90
11087;DHT22;5597;47.588;9.642;2024-02-26T15:56:48;10.80;99.90